Time;durP1;ratioP1;P1;durP2;ratioP2;P2;SDS_P1;SDS_P2;PMS_P1;PMS_P2;Temp;Humidity;BMP_temperature;BMP_pressure;BME280_temperature;BME280_humidity;BME280_pressure;Samples;Min_cycle;Max_cycle;Signal;HPM_P1;HPM_P2
2022/09/14 00:00:50;;;;;;;27.58;14.52;;;;;;;;;;5047301;28;20575;-63
2022/09/14 00:03:16;;;;;;;23.80;12.68;;;;;;;;;;5028989;28;20037;-63
2022/09/14 00:05:42;;;;;;;23.95;12.05;;;;;;;;;;5047627;28;20028;-62
2022/09/14 00:08:08;;;;;;;23.30;12.13;;;;;;;;;;5047403;28;20072;-63
2022/09/14 00:10:38;;;;;;;23.70;12.15;;;;;;;;;;5046994;28;20036;-63
2022/09/14 00:13:03;;;;;;;21.02;11.52;;;;;;;;;;5046940;28;20061;-63
2022/09/14 00:15:28;;;;;;;22.08;12.00;;;;;;;;;;5046108;28;20052;-63
2022/09/14 00:17:54;;;;;;;22.70;11.05;;;;;;;;;;5044406;28;20194;-63
2022/09/14 00:20:19;;;;;;;17.92;9.57;;;;;;;;;;5047609;28;20044;-63
2022/09/14 00:22:44;;;;;;;19.83;10.32;;;;;;;;;;5046689;28;20040;-63
2022/09/14 00:25:10;;;;;;;17.40;9.30;;;;;;;;;;5045130;28;20506;-62
2022/09/14 00:27:35;;;;;;;16.17;9.20;;;;;;;;;;5033724;28;20183;-63
2022/09/14 00:30:00;;;;;;;18.15;9.23;;;;;;;;;;5033355;28;20040;-63
2022/09/14 00:32:26;;;;;;;19.23;9.15;;;;;;;;;;5034169;28;20092;-63
2022/09/14 00:34:51;;;;;;;18.65;8.25;;;;;;;;;;5033686;28;20102;-63
2022/09/14 00:37:16;;;;;;;17.27;7.88;;;;;;;;;;5033612;28;20546;-63
2022/09/14 00:39:42;;;;;;;17.65;8.48;;;;;;;;;;5033483;28;20041;-63
2022/09/14 00:42:14;;;;;;;20.05;8.23;;;;;;;;;;5033667;28;20061;-63
2022/09/14 00:44:39;;;;;;;15.23;8.53;;;;;;;;;;5033871;28;20029;-63
2022/09/14 00:47:05;;;;;;;14.55;7.60;;;;;;;;;;5022295;28;20037;-63
2022/09/14 00:49:36;;;;;;;16.13;7.60;;;;;;;;;;5033883;28;20560;-63
2022/09/14 00:52:25;;;;;;;15.43;7.63;;;;;;;;;;5033809;28;20038;-63
2022/09/14 00:54:55;;;;;;;12.25;6.80;;;;;;;;;;5033378;28;20033;-63
2022/09/14 00:57:21;;;;;;;13.27;7.13;;;;;;;;;;5045666;28;20044;-63
2022/09/14 00:59:50;;;;;;;14.82;7.13;;;;;;;;;;5052962;28;20036;-63
2022/09/14 01:02:17;;;;;;;16.02;6.63;;;;;;;;;;5035999;28;20029;-63
2022/09/14 01:04:43;;;;;;;14.18;7.00;;;;;;;;;;5053275;28;20418;-63
2022/09/14 01:07:16;;;;;;;11.88;7.03;;;;;;;;;;5053367;28;20048;-63
2022/09/14 01:09:48;;;;;;;;;;;;;;;;;;5053729;28;20037;-63
2022/09/14 01:12:28;;;;;;;;;;;;;;;;;;5035580;28;19940;-63
2022/09/14 01:15:01;;;;;;;;;;;;;;;;;;5053880;28;19964;-63
2022/09/14 01:17:28;;;;;;;;;;;;;;;;;;5044816;28;19971;-63
2022/09/14 01:20:06;;;;;;;;;;;;;;;;;;5051995;28;20443;-63
2022/09/14 01:22:51;;;;;;;;;;;;;;;;;;5053260;28;19916;-63
2022/09/14 01:25:34;;;;;;;;;;;;;;;;;;5053401;28;19912;-63
2022/09/14 01:28:02;;;;;;;;;;;;;;;;;;5053757;28;20326;-63
2022/09/14 01:30:30;;;;;;;;;;;;;;;;;;5053269;28;19912;-63
2022/09/14 01:33:12;;;;;;;;;;;;;;;;;;5052615;28;19909;-63
2022/09/14 01:35:41;;;;;;;;;;;;;;;;;;5030591;28;19909;-63
2022/09/14 01:38:14;;;;;;;;;;;;;;;;;;5029972;28;19913;-63
2022/09/14 01:40:43;;;;;;;;;;;;;;;;;;5029789;28;19939;-63
2022/09/14 01:43:23;;;;;;;;;;;;;;;;;;5030357;28;19928;-63
2022/09/14 01:45:54;;;;;;;;;;;;;;;;;;5030442;28;20306;-63
2022/09/14 01:48:23;;;;;;;;;;;;;;;;;;5030261;28;19912;-63
2022/09/14 01:50:53;;;;;;;;;;;;;;;;;;5030191;28;19970;-63
2022/09/14 01:53:25;;;;;;;;;;;;;;;;;;5049686;28;20002;-63
2022/09/14 01:55:53;;;;;;;;;;;;;;;;;;5050005;28;19919;-63
2022/09/14 01:58:25;;;;;;;;;;;;;;;;;;5030102;28;19913;-63
2022/09/14 02:00:52;;;;;;;;;;;;;;;;;;5031259;28;19991;-63
2022/09/14 02:03:21;;;;;;;;;;;;;;;;;;5029937;28;19913;-63
2022/09/14 02:05:52;;;;;;;;;;;;;;;;;;5030045;28;20308;-63
2022/09/14 02:08:17;;;;;;;;;;;;;;;;;;5012595;28;19948;-63
2022/09/14 02:10:42;;;;;;;;;;;;;;;;;;5029961;28;20720;-63
2022/09/14 02:13:08;;;;;;;;;;;;;;;;;;5034803;28;20496;-63
2022/09/14 02:15:34;;;;;;;;;;;;;;;;;;5049024;28;19939;-63
2022/09/14 02:18:00;;;;;;;;;;;;;;;;;;5047716;28;19917;-63
2022/09/14 02:20:38;;;;;;;;;;;;;;;;;;5049933;28;19955;-63
2022/09/14 02:23:04;;;;;;;;;;;;;;;;;;5049300;28;20023;-63
2022/09/14 02:25:29;;;;;;;;;;;;;;;;;;5031140;28;20019;-63
2022/09/14 02:27:54;;;;;;;;;;;;;;;;;;5049149;28;19913;-63
2022/09/14 02:30:20;;;;;;;;;;;;;;;;;;5049371;28;20003;-63
2022/09/14 02:32:45;;;;;;;;;;;;;;;;;;5049521;28;19909;-63
2022/09/14 02:35:21;;;;;;;;;;;;;;;;;;5049512;28;19915;-63
2022/09/14 02:38:09;;;;;;;;;;;;;;;;;;5049398;28;19935;-63
2022/09/14 02:40:36;;;;;;;;;;;;;;;;;;5034412;28;19920;-63
2022/09/14 02:43:11;;;;;;;;;;;;;;;;;;5049098;28;19951;-63
2022/09/14 02:45:39;;;;;;;;;;;;;;;;;;5031075;28;20364;-63
2022/09/14 02:48:11;;;;;;;;;;;;;;;;;;5048947;28;19920;-63
2022/09/14 02:50:36;;;;;;;;;;;;;;;;;;5046537;28;19909;-63
2022/09/14 02:53:11;;;;;;;;;;;;;;;;;;5049080;28;19920;-63
2022/09/14 02:55:39;;;;;;;;;;;;;;;;;;5048739;28;20004;-63
2022/09/14 02:58:11;;;;;;;;;;;;;;;;;;5048823;28;19917;-63
2022/09/14 03:00:41;;;;;;;;;;;;;;;;;;5048489;28;19913;-63
2022/09/14 03:03:06;;;;;;;;;;;;;;;;;;5041834;28;20441;-63
2022/09/14 03:05:32;;;;;;;;;;;;;;;;;;5049080;28;19954;-63
2022/09/14 03:07:58;;;;;;;;;;;;;;;;;;5048468;28;20452;-63
2022/09/14 03:10:23;;;;;;;;;;;;;;;;;;5031082;28;19917;-63
2022/09/14 03:12:48;;;;;;;;;;;;;;;;;;5048295;28;20377;-63
2022/09/14 03:15:14;;;;;;;;;;;;;;;;;;5048882;28;19913;-63
2022/09/14 03:17:43;;;;;;;;;;;;;;;;;;5048570;28;19927;-63
2022/09/14 03:20:09;;;;;;;;;;;;;;;;;;5049005;28;19924;-63
2022/09/14 03:22:34;;;;;;;;;;;;;;;;;;5048244;28;20380;-63
2022/09/14 03:25:00;;;;;;;;;;;;;;;;;;5029899;28;20409;-63
2022/09/14 03:27:25;;;;;;;;;;;;;;;;;;5048228;28;19950;-63
2022/09/14 03:29:50;;;;;;;;;;;;;;;;;;5047897;28;20007;-63
2022/09/14 03:32:15;;;;;;;;;;;;;;;;;;5048774;28;20344;-63
2022/09/14 03:34:40;;;;;;;;;;;;;;;;;;5048409;28;19913;-63
2022/09/14 03:37:06;;;;;;;;;;;;;;;;;;5047586;28;19947;-63
2022/09/14 03:39:31;;;;;;;;;;;;;;;;;;5047062;28;19940;-63
2022/09/14 03:41:57;;;;;;;;;;;;;;;;;;5048107;28;19919;-63
2022/09/14 03:44:22;;;;;;;;;;;;;;;;;;5046531;28;19909;-62
2022/09/14 03:46:47;;;;;;;;;;;;;;;;;;5047723;28;20018;-63
2022/09/14 03:49:12;;;;;;;;;;;;;;;;;;5048253;28;19920;-63
2022/09/14 03:51:38;;;;;;;;;;;;;;;;;;5047517;28;20321;-63
2022/09/14 03:54:03;;;;;;;;;;;;;;;;;;5028557;28;19916;-63
2022/09/14 03:56:28;;;;;;;;;;;;;;;;;;5048317;28;19958;-63
2022/09/14 03:58:53;;;;;;;;;;;;;;;;;;5047397;28;19923;-63
2022/09/14 04:01:20;;;;;;;;;;;;;;;;;;5047418;28;19924;-63
2022/09/14 04:03:46;;;;;;;;;;;;;;;;;;5047907;28;20003;-63
2022/09/14 04:06:11;;;;;;;;;;;;;;;;;;5042449;28;20465;-63
2022/09/14 04:08:38;;;;;;;;;;;;;;;;;;5046934;28;19939;-63
2022/09/14 04:11:07;;;;;;;;;;;;;;;;;;5047759;28;20015;-63
2022/09/14 04:13:32;;;;;;;;;;;;;;;;;;5047427;28;19912;-63
2022/09/14 04:15:58;;;;;;;;;;;;;;;;;;5047436;28;19926;-63
2022/09/14 04:18:24;;;;;;;;;;;;;;;;;;5047129;28;19963;-63
2022/09/14 04:20:53;;;;;;;;;;;;;;;;;;5047035;28;20329;-63
2022/09/14 04:23:18;;;;;;;;;;;;;;;;;;5041819;28;19905;-63
2022/09/14 04:25:44;;;;;;;;;;;;;;;;;;5047584;28;19912;-63
2022/09/14 04:28:09;;;;;;;;;;;;;;;;;;5045734;28;19958;-63
2022/09/14 04:30:34;;;;;;;;;;;;;;;;;;5033226;28;20669;-63
2022/09/14 04:32:59;;;;;;;;;;;;;;;;;;5027563;28;19944;-63
2022/09/14 04:35:24;;;;;;;;;;;;;;;;;;5028121;28;19905;-63
2022/09/14 04:37:50;;;;;;;;;;;;;;;;;;5027321;28;19913;-63
2022/09/14 04:40:15;;;;;;;;;;;;;;;;;;5028779;28;20663;-63
2022/09/14 04:42:40;;;;;;;;;;;;;;;;;;5032156;28;19917;-63
2022/09/14 04:45:05;;;;;;;;;;;;;;;;;;5027395;28;19974;-63
2022/09/14 04:47:31;;;;;;;;;;;;;;;;;;5027442;28;19916;-63
2022/09/14 04:49:56;;;;;;;;;;;;;;;;;;5027404;28;19913;-63
2022/09/14 04:52:22;;;;;;;;;;;;;;;;;;5030895;28;19913;-63
2022/09/14 04:54:47;;;;;;;;;;;;;;;;;;5024685;28;19920;-63
2022/09/14 04:57:12;;;;;;;;;;;;;;;;;;5040067;28;19936;-63
2022/09/14 04:59:37;;;;;;;;;;;;;;;;;;5047752;28;19908;-63
2022/09/14 05:02:03;;;;;;;;;;;;;;;;;;5047120;28;19974;-63
2022/09/14 05:04:28;;;;;;;;;;;;;;;;;;5046171;28;19958;-63
2022/09/14 05:06:55;;;;;;;;;;;;;;;;;;5047271;28;19960;-63
2022/09/14 05:09:20;;;;;;;;;;;;;;;;;;5046809;28;19916;-62
2022/09/14 05:11:45;;;;;;;;;;;;;;;;;;5044859;28;19909;-63
2022/09/14 05:14:12;;;;;;;;;;;;;;;;;;5050503;28;19967;-63
2022/09/14 05:16:37;;;;;;;;;;;;;;;;;;5050303;28;19921;-63
2022/09/14 05:19:04;;;;;;;;;;;;;;;;;;5049431;28;19912;-63
2022/09/14 05:21:31;;;;;;;;;;;;;;;;;;5033017;28;20321;-63
2022/09/14 05:24:00;;;;;;;;;;;;;;;;;;5031965;28;19917;-63
2022/09/14 05:26:26;;;;;;;;;;;;;;;;;;5044536;28;20382;-63
2022/09/14 05:28:52;;;;;;;;;;;;;;;;;;5038122;28;19913;-63
2022/09/14 05:31:18;;;;;;;;;;;;;;;;;;5031401;28;19920;-63
2022/09/14 05:33:43;;;;;;;;;;;;;;;;;;5030567;28;19913;-63
2022/09/14 05:36:09;;;;;;;;;;;;;;;;;;5030472;28;20302;-63
2022/09/14 05:38:35;;;;;;;;;;;;;;;;;;5030848;28;19917;-63
2022/09/14 05:41:00;;;;;;;;;;;;;;;;;;5030081;28;19936;-63
2022/09/14 05:43:26;;;;;;;;;;;;;;;;;;5030386;28;19924;-62
2022/09/14 05:45:52;;;;;;;;;;;;;;;;;;5034010;28;19923;-62
2022/09/14 05:48:17;;;;;;;;;;;;;;;;;;5035684;28;19913;-63
2022/09/14 05:50:42;;;;;;;;;;;;;;;;;;5048871;28;19915;-62
2022/09/14 05:53:07;;;;;;;;;;;;;;;;;;5048796;28;19917;-63
2022/09/14 05:55:33;;;;;;;;;;;;;;;;;;5050289;28;19920;-63
2022/09/14 05:57:58;;;;;;;;;;;;;;;;;;5049612;28;19959;-63
2022/09/14 06:00:24;;;;;;;;;;;;;;;;;;5049641;28;19917;-63
2022/09/14 06:02:50;;;;;;;;;;;;;;;;;;5049367;28;19912;-63
2022/09/14 06:05:16;;;;;;;;;;;;;;;;;;5050383;28;20341;-63
2022/09/14 06:07:41;;;;;;;;;;;;;;;;;;5049835;28;20488;-62
2022/09/14 06:10:07;;;;;;;;;;;;;;;;;;5050042;28;19912;-63
2022/09/14 06:12:32;;;;;;;;;;;;;;;;;;5049404;28;19998;-63
2022/09/14 06:14:57;;;;;;;;;;;;;;;;;;5050090;28;20328;-63
2022/09/14 06:17:22;;;;;;;;;;;;;;;;;;5042998;28;20391;-62
2022/09/14 06:19:48;;;;;;;;;;;;;;;;;;5047973;28;19964;-62
2022/09/14 06:22:13;;;;;;;;;;;;;;;;;;5032772;28;20460;-62
2022/09/14 06:24:38;;;;;;;;;;;;;;;;;;5004134;28;19917;-62
2022/09/14 06:27:03;;;;;;;;;;;;;;;;;;5024918;28;19917;-62
2022/09/14 06:29:29;;;;;;;;;;;;;;;;;;5029602;28;20543;-63
2022/09/14 06:31:54;;;;;;;;;;;;;;;;;;5030825;28;20063;-63
2022/09/14 06:34:19;;;;;;;;;;;;;;;;;;5030411;28;19917;-62
2022/09/14 06:36:44;;;;;;;;;;;;;;;;;;5030017;28;19917;-63
2022/09/14 06:39:09;;;;;;;;;;;;;;;;;;5030367;28;20368;-63
2022/09/14 06:41:35;;;;;;;;;;;;;;;;;;5032146;28;20011;-63
2022/09/14 06:44:00;;;;;;;;;;;;;;;;;;5031183;28;20058;-63
2022/09/14 06:46:27;;;;;;;;;;;;;;;;;;5029083;28;20409;-62
2022/09/14 06:50:08;;;;;;;;;;;;;;;;;;4826879;28;19967;-63
2022/09/14 06:52:34;;;;;;;;;;;;;;;;;;4773857;28;53622;-64
2022/09/14 06:55:00;;;;;;;;;;;;;;;;;;4966712;28;19929;-63
2022/09/14 06:57:25;;;;;;;;;;;;;;;;;;5005392;28;19922;-63
2022/09/14 06:59:50;;;;;;;;;;;;;;;;;;5004467;28;19918;-63
2022/09/14 07:02:15;;;;;;;;;;;;;;;;;;5002399;28;19914;-64
2022/09/14 07:04:40;;;;;;;;;;;;;;;;;;4999639;28;19925;-63
2022/09/14 07:07:06;;;;;;;;;;;;;;;;;;5005635;28;20434;-63
2022/09/14 07:09:31;;;;;;;;;;;;;;;;;;5005459;28;19922;-63
2022/09/14 07:11:56;;;;;;;;;;;;;;;;;;5004652;28;19929;-64
2022/09/14 07:14:21;;;;;;;;;;;;;;;;;;4997385;28;19914;-63
2022/09/14 07:16:47;;;;;;;;;;;;;;;;;;5000411;28;20443;-63
2022/09/14 07:19:13;;;;;;;;;;;;;;;;;;5000627;28;19957;-63
2022/09/14 07:21:39;;;;;;;;;;;;;;;;;;4998327;28;19917;-64
2022/09/14 07:24:04;;;;;;;;;;;;;;;;;;5003207;28;19929;-63
2022/09/14 07:26:31;;;;;;;;;;;;;;;;;;4997293;28;20519;-64
2022/09/14 07:29:00;;;;;;;;;;;;;;;;;;4989479;28;19986;-63
2022/09/14 07:31:26;;;;;;;;;;;;;;;;;;5003016;28;19922;-64
2022/09/14 07:33:52;;;;;;;;;;;;;;;;;;4999861;28;19928;-63
2022/09/14 07:36:17;;;;;;;;;;;;;;;;;;5002158;28;20380;-61
2022/09/14 07:38:42;;;;;;;;;;;;;;;;;;4995015;28;19924;-61
2022/09/14 07:41:07;;;;;;;;;;;;;;;;;;4996083;28;19925;-61
2022/09/14 07:43:33;;;;;;;;;;;;;;;;;;5000749;28;19921;-61
2022/09/14 07:46:03;;;;;;;;;;;;;;;;;;5000166;28;20310;-64
2022/09/14 07:48:28;;;;;;;;;;;;;;;;;;5009344;28;19932;-64
2022/09/14 07:51:04;;;;;;;;;;;;;;;;;;5022469;28;19922;-62
2022/09/14 07:53:29;;;;;;;;;;;;;;;;;;5023226;28;20434;-61
2022/09/14 07:56:01;;;;;;;;;;;;;;;;;;5012616;28;20020;-61
2022/09/14 07:58:27;;;;;;;;;;;;;;;;;;5022476;28;19925;-61
2022/09/14 08:01:07;;;;;;;;;;;;;;;;;;5007755;28;19940;-61
2022/09/14 08:03:35;;;;;;;;;;;;;;;;;;5004807;28;19928;-61
2022/09/14 08:06:01;;;;;;;;;;;;;;;;;;5003484;28;20404;-61
2022/09/14 08:08:30;;;;;;;;;;;;;;;;;;4999834;28;19932;-61
2022/09/14 08:11:01;;;;;;;;;;;;;;;;;;5002305;28;19940;-61
2022/09/14 08:13:26;;;;;;;;;;;;;;;;;;5003838;28;20383;-61
2022/09/14 08:15:51;;;;;;;;;;;;;;;;;;5010452;28;19918;-61
2022/09/14 08:18:17;;;;;;;;;;;;;;;;;;5007699;28;19917;-61
2022/09/14 08:20:42;;;;;;;;;;;;;;;;;;5007562;28;19925;-61
2022/09/14 08:23:08;;;;;;;;;;;;;;;;;;5006980;28;19924;-61
2022/09/14 08:25:33;;;;;;;;;;;;;;;;;;5010565;28;19925;-61
2022/09/14 08:27:58;;;;;;;;;;;;;;;;;;5010757;28;19932;-61
2022/09/14 08:30:23;;;;;;;;;;;;;;;;;;5010162;28;19917;-63
2022/09/14 08:32:48;;;;;;;;;;;;;;;;;;5010954;28;19940;-61
2022/09/14 08:35:14;;;;;;;;;;;;;;;;;;5007135;28;19918;-61
2022/09/14 08:37:39;;;;;;;;;;;;;;;;;;4999753;28;19925;-61
2022/09/14 08:40:04;;;;;;;;;;;;;;;;;;5010282;28;19939;-61
2022/09/14 08:42:30;;;;;;;;;;;;;;;;;;5010073;28;19925;-61
2022/09/14 08:44:57;;;;;;;;;;;;;;;;;;5009961;28;20011;-61
2022/09/14 08:47:26;;;;;;;;;;;;;;;;;;5010530;28;20003;-61
2022/09/14 08:50:00;;;;;;;;;;;;;;;;;;5010028;28;19927;-61
2022/09/14 08:52:29;;;;;;;;;;;;;;;;;;5003823;28;19917;-63
2022/09/14 08:54:55;;;;;;;;;;;;;;;;;;5009205;28;19925;-61
2022/09/14 08:57:26;;;;;;;;;;;;;;;;;;5009217;28;19992;-61
2022/09/14 08:59:57;;;;;;;;;;;;;;;;;;5008571;28;19918;-61
2022/09/14 09:02:35;;;;;;;;;;;;;;;;;;5009080;28;19944;-63
2022/09/14 09:05:00;;;;;;;;;;;;;;;;;;5004763;28;19925;-63
2022/09/14 09:07:41;;;;;;;;;;;;;;;;;;4994361;28;20460;-61
2022/09/14 09:10:10;;;;;;;;;;;;;;;;;;4997927;28;19925;-61
2022/09/14 09:12:37;;;;;;;;;;;;;;;;;;5008127;28;20457;-61
2022/09/14 09:15:05;;;;;;;;;;;;;;;;;;5008364;28;19917;-61
2022/09/14 09:17:33;;;;;;;;;;;;;;;;;;5009165;28;19921;-61
2022/09/14 09:19:58;;;;;;;;;;;;;;;;;;5002430;28;19954;-60
2022/09/14 09:22:25;;;;;;;;;;;;;;;;;;4988559;28;19953;-63
2022/09/14 09:24:52;;;;;;;;;;;;;;;;;;5023898;28;19922;-63
2022/09/14 09:27:18;;;;;;;;;;;;;;;;;;5040147;28;19922;-62
2022/09/14 09:29:43;;;;;;;;;;;;;;;;;;5008532;28;19943;-62
2022/09/14 09:32:14;;;;;;;;;;;;;;;;;;5009351;28;19988;-62
2022/09/14 09:34:39;;;;;;;;;;;;;;;;;;5008794;28;19918;-62
2022/09/14 09:37:04;;;;;;;;;;;;;;;;;;4996477;28;19924;-62
2022/09/14 09:39:30;;;;;;;;;;;;;;;;;;5006919;28;19929;-62
2022/09/14 09:42:00;;;;;;;;;;;;;;;;;;5008322;28;19917;-62
2022/09/14 09:44:25;;;;;;;;;;;;;;;;;;5008554;28;20379;-62
2022/09/14 09:46:57;;;;;;;;;;;;;;;;;;5008954;28;19913;-62
2022/09/14 09:49:25;;;;;;;;;;;;;;;;;;5007979;28;19984;-62
2022/09/14 09:51:51;;;;;;;;;;;;;;;;;;5008513;28;19921;-62
2022/09/14 09:54:19;;;;;;;;;;;;;;;;;;5006593;28;19918;-62
2022/09/14 09:56:50;;;;;;;;;;;;;;;;;;5008363;28;19971;-62
2022/09/14 09:59:26;;;;;;;;;;;;;;;;;;5008328;28;20473;-62
2022/09/14 10:01:53;;;;;;;;;;;;;;;;;;5004755;28;19914;-62
2022/09/14 10:04:20;;;;;;;;;;;;;;;;;;5004431;28;19917;-62
2022/09/14 10:06:46;;;;;;;;;;;;;;;;;;5008367;28;19921;-62
2022/09/14 10:09:13;;;;;;;;;;;;;;;;;;5006711;28;20008;-62
2022/09/14 10:11:38;;;;;;;;;;;;;;;;;;4998251;28;19953;-62
2022/09/14 10:14:05;;;;;;;;;;;;;;;;;;5008042;28;20491;-62
2022/09/14 10:16:38;;;;;;;;;;;;;;;;;;5007406;28;19949;-62
2022/09/14 10:19:11;;;;;;;;;;;;;;;;;;5007542;28;20040;-62
2022/09/14 10:21:56;;;;;;;;;;;;;;;;;;5007715;28;20003;-62
2022/09/14 10:24:21;;;;;;;;;;;;;;;;;;4997530;28;19921;-62
2022/09/14 10:26:47;;;;;;;;;;;;;;;;;;5004306;28;19980;-62
2022/09/14 10:29:34;;;;;;;;;;;;;;;;;;5006579;28;20305;-62
2022/09/14 10:32:19;;;;;;;;;;;;;;;;;;5008019;28;19953;-62
2022/09/14 10:34:44;;;;;;;;;;;;;;;;;;5007461;28;20023;-62
2022/09/14 10:37:36;;;;;;;;;;;;;;;;;;5007496;28;19921;-62
2022/09/14 10:40:16;;;;;;;;;;;;;;;;;;5003529;28;19937;-62
2022/09/14 10:42:42;;;;;;;;;;;;;;;;;;5007395;28;20012;-62
2022/09/14 10:45:09;;;;;;;;;;;;;;;;;;5008022;28;20004;-62
2022/09/14 10:47:44;;;;;;;;;;;;;;;;;;5007647;28;20477;-62
2022/09/14 10:50:26;;;;;;;;;;;;;;;;;;5005728;28;19925;-62
2022/09/14 10:53:14;;;;;;;;;;;;;;;;;;5007791;28;19924;-62
2022/09/14 10:55:42;;;;;;;;;;;;;;;;;;5008156;28;19967;-62
2022/09/14 10:58:28;;;;;;;;;;;;;;;;;;5007366;28;19917;-62
2022/09/14 11:01:01;;;;;;;;;;;;;;;;;;5007558;28;20029;-62
2022/09/14 11:03:26;;;;;;;;;;;;;;;;;;5007008;28;20028;-62
2022/09/14 11:05:54;;;;;;;;;;;;;;;;;;5006407;28;20031;-62
2022/09/14 11:08:28;;;;;;;;;;;;;;;;;;5006840;28;20441;-62
2022/09/14 11:11:05;;;;;;;;;;;;;;;;;;5006127;28;19917;-62
2022/09/14 11:13:49;;;;;;;;;;;;;;;;;;5003896;28;19926;-62
2022/09/14 11:16:33;;;;;;;;;;;;;;;;;;4963839;28;20362;-62
2022/09/14 11:19:18;;;;;;;;;;;;;;;;;;4993298;28;19925;-62
2022/09/14 11:21:54;;;;;;;;;;;;;;;;;;5004830;28;19917;-62
2022/09/14 11:24:19;;;;;;;;;;;;;;;;;;5004796;28;19921;-62
2022/09/14 11:26:49;;;;;;;;;;;;;;;;;;4996026;28;19933;-62
2022/09/14 11:29:26;;;;;;;;;;;;;;;;;;4985119;28;20385;-62
2022/09/14 11:31:54;;;;;;;;;;;;;;;;;;4986525;28;19918;-62
2022/09/14 11:34:27;;;;;;;;;;;;;;;;;;4985922;28;19925;-62
2022/09/14 11:36:54;;;;;;;;;;;;;;;;;;4996996;28;19925;-62
2022/09/14 11:39:37;;;;;;;;;;;;;;;;;;5008918;28;20008;-62
2022/09/14 11:42:24;;;;;;;;;;;;;;;;;;5008541;28;20362;-62
2022/09/14 11:45:01;;;;;;;;;;;;;;;;;;5007358;28;19924;-62
2022/09/14 11:47:27;;;;;;;;;;;;;;;;;;5040025;28;19913;-62
2022/09/14 11:50:01;;;;;;;;;;;;;;;;;;5008829;28;19932;-62
2022/09/14 11:52:28;;;;;;;;;;;;;;;;;;5006722;28;19945;-62
2022/09/14 11:54:54;;;;;;;;;;;;;;;;;;5001596;28;19918;-62
2022/09/14 11:57:22;;;;;;;;;;;;;;;;;;5007666;28;19925;-62
2022/09/14 11:59:50;;;;;;;;;;;;;;;;;;5001737;28;19922;-62
2022/09/14 12:02:21;;;;;;;;;;;;;;;;;;4990239;28;20449;-62
2022/09/14 12:05:05;;;;;;;;;;;;;;;;;;5006442;28;19937;-62
2022/09/14 12:07:41;;;;;;;;;;;;;;;;;;5006797;28;19975;-62
2022/09/14 12:10:13;;;;;;;;;;;;;;;;;;5008657;28;19926;-62
2022/09/14 12:12:57;;;;;;;;;;;;;;;;;;5007334;28;20453;-62
2022/09/14 12:15:25;;;;;;;;;;;;;;;;;;5008243;28;20476;-62
2022/09/14 12:17:52;;;;;;;;;;;;;;;;;;5004123;28;20227;-62
2022/09/14 12:20:23;;;;;;;;;;;;;;;;;;5003764;28;20379;-62
2022/09/14 12:22:48;;;;;;;;;;;;;;;;;;5005654;28;19922;-62
2022/09/14 12:25:13;;;;;;;;;;;;;;;;;;5006246;28;19917;-62
2022/09/14 12:27:39;;;;;;;;;;;;;;;;;;5007471;28;19925;-62
2022/09/14 12:30:23;;;;;;;;;;;;;;;;;;5000287;28;19921;-62
2022/09/14 12:32:49;;;;;;;;;;;;;;;;;;5007647;28;19914;-62
2022/09/14 12:35:32;;;;;;;;;;;;;;;;;;5003773;28;19920;-62
2022/09/14 12:37:58;;;;;;;;;;;;;;;;;;5005100;28;19972;-62
2022/09/14 12:40:35;;;;;;;;;;;;;;;;;;5008017;28;20367;-62
2022/09/14 12:43:19;;;;;;;;;;;;;;;;;;5000773;28;19929;-62
2022/09/14 12:45:49;;;;;;;;;;;;;;;;;;5004534;28;19925;-62
2022/09/14 12:48:35;;;;;;;;;;;;;;;;;;4988380;28;19937;-62
2022/09/14 12:51:01;;;;;;;;;;;;;;;;;;4991735;28;19918;-62
2022/09/14 12:53:29;;;;;;;;;;;;;;;;;;4991293;28;19913;-62
2022/09/14 12:56:00;;;;;;;;;;;;;;;;;;4996012;28;19971;-62
2022/09/14 12:58:36;;;;;;;;;;;;;;;;;;5003187;28;19928;-62
2022/09/14 13:01:01;;;;;;;;;;;;;;;;;;5003784;28;19925;-63
2022/09/14 13:03:33;;;;;;;;;;;;;;;;;;5037020;28;20004;-62
2022/09/14 13:05:58;;;;;;;;;;;;;;;;;;4997932;28;20425;-62
2022/09/14 13:08:23;;;;;;;;;;;;;;;;;;5004501;28;19924;-62
2022/09/14 13:10:50;;;;;;;;;;;;;;;;;;4999616;28;19921;-62
2022/09/14 13:13:28;;;;;;;;;;;;;;;;;;5000545;28;19957;-62
2022/09/14 13:15:58;;;;;;;;;;;;;;;;;;4999539;28;19922;-62
2022/09/14 13:18:27;;;;;;;;;;;;;;;;;;5031620;28;19929;-62
2022/09/14 13:21:00;;;;;;;;;;;;;;;;;;5002131;28;19917;-62
2022/09/14 13:23:30;;;;;;;;;;;;;;;;;;5009516;28;19913;-62
2022/09/14 13:25:56;;;;;;;;;;;;;;;;;;5008630;28;19918;-62
2022/09/14 13:28:22;;;;;;;;;;;;;;;;;;5008215;28;19933;-62
2022/09/14 13:30:54;;;;;;;;;;;;;;;;;;5007077;28;19917;-62
2022/09/14 13:33:20;;;;;;;;;;;;;;;;;;5007908;28;19991;-62
2022/09/14 13:35:48;;;;;;;;;;;;;;;;;;5000494;28;19925;-62
2022/09/14 13:38:16;;;;;;;;;;;;;;;;;;5007551;28;19918;-62
2022/09/14 13:40:41;;;;;;;;;;;;;;;;;;5008577;28;19928;-62
2022/09/14 13:43:07;;;;;;;;;;;;;;;;;;5001358;28;19922;-62
2022/09/14 13:45:32;;;;;;;;;;;;;;;;;;5000604;28;19927;-62
2022/09/14 13:47:58;;;;;;;;;;;;;;;;;;4997604;28;20464;-62
2022/09/14 13:50:24;;;;;;;;;;;;;;;;;;5001391;28;19925;-62
2022/09/14 13:52:50;;;;;;;;;;;;;;;;;;5002764;28;19918;-62
2022/09/14 13:55:17;;;;;;;;;;;;;;;;;;4998571;28;20452;-62
2022/09/14 13:58:01;;;;;;;;;;;;;;;;;;4996101;28;19928;-62
2022/09/14 14:00:27;;;;;;;;;;;;;;;;;;5003069;28;20709;-62
2022/09/14 14:02:53;;;;;;;;;;;;;;;;;;5004814;28;19924;-62
2022/09/14 14:05:26;;;;;;;;;;;;;;;;;;5002032;28;20663;-62
2022/09/14 14:07:52;;;;;;;;;;;;;;;;;;5001418;28;19936;-62
2022/09/14 14:10:28;;;;;;;;;;;;;;;;;;5001688;28;19922;-62
2022/09/14 14:12:54;;;;;;;;;;;;;;;;;;5007400;28;19925;-62
2022/09/14 14:15:19;;;;;;;;;;;;;;;;;;5004543;28;20310;-62
2022/09/14 14:17:44;;;;;;;;;;;;;;;;;;4997820;28;19932;-62
2022/09/14 14:20:25;;;;;;;;;;;;;;;;;;5002000;28;20291;-62
2022/09/14 14:22:56;;;;;;;;;;;;;;;;;;5006277;28;19957;-62
2022/09/14 14:25:32;;;;;;;;;;;;;;;;;;5007695;28;20016;-62
2022/09/14 14:27:59;;;;;;;;;;;;;;;;;;5006900;28;19921;-62
2022/09/14 14:30:27;;;;;;;;;;;;;;;;;;5005693;28;19921;-62
2022/09/14 14:32:53;;;;;;;;;;;;;;;;;;5004440;28;19925;-62
2022/09/14 14:35:21;;;;;;;;;;;;;;;;;;5007176;28;20004;-62
2022/09/14 14:37:47;;;;;;;;;;;;;;;;;;5004262;28;19970;-62
2022/09/14 14:40:13;;;;;;;;;;;;;;;;;;5011091;28;19972;-62
2022/09/14 14:42:38;;;;;;;;;;;;;;;;;;5006568;28;19941;-62
2022/09/14 14:45:04;;;;;;;;;;;;;;;;;;5006654;28;19987;-62
2022/09/14 14:47:29;;;;;;;;;;;;;;;;;;5001626;28;19920;-62
2022/09/14 14:49:54;;;;;;;;;;;;;;;;;;4999095;28;19925;-62
2022/09/14 14:52:20;;;;;;;;;;;;;;;;;;5000603;28;19929;-63
2022/09/14 14:54:45;;;;;;;;;;;;;;;;;;4992163;28;20432;-62
2022/09/14 14:57:10;;;;;;;;;;;;;;;;;;4999774;28;20518;-62
2022/09/14 14:59:36;;;;;;;;;;;;;;;;;;4999194;28;20353;-62
2022/09/14 15:02:01;;;;;;;;;;;;;;;;;;4997415;28;19921;-62
2022/09/14 15:04:26;;;;;;;;;;;;;;;;;;5004649;28;20008;-62
2022/09/14 15:06:52;;;;;;;;;;;;;;;;;;4994552;28;19922;-62
2022/09/14 15:09:19;;;;;;;;;;;;;;;;;;5000820;28;20012;-62
2022/09/14 15:11:45;;;;;;;;;;;;;;;;;;5010681;28;19925;-62
2022/09/14 15:14:14;;;;;;;;;;;;;;;;;;5001539;28;19918;-62
2022/09/14 15:16:39;;;;;;;;;;;;;;;;;;4998111;28;20008;-62
2022/09/14 15:19:05;;;;;;;;;;;;;;;;;;5007787;28;20008;-62
2022/09/14 15:21:30;;;;;;;;;;;;;;;;;;5016210;28;19928;-62
2022/09/14 15:23:57;;;;;;;;;;;;;;;;;;5014409;28;19949;-62
2022/09/14 15:26:23;;;;;;;;;;;;;;;;;;5010380;28;19917;-62
2022/09/14 15:28:49;;;;;;;;;;;;;;;;;;5009616;28;19945;-62
2022/09/14 15:31:14;;;;;;;;;;;;;;;;;;5008779;28;19918;-62
2022/09/14 15:33:40;;;;;;;;;;;;;;;;;;5008720;28;19928;-63
2022/09/14 15:36:05;;;;;;;;;;;;;;;;;;5009289;28;19936;-62
2022/09/14 15:38:30;;;;;;;;;;;;;;;;;;5009854;28;19924;-62
2022/09/14 15:40:55;;;;;;;;;;;;;;;;;;5009071;28;19918;-62
2022/09/14 15:43:21;;;;;;;;;;;;;;;;;;5008951;28;19921;-62
2022/09/14 15:45:46;;;;;;;;;;;;;;;;;;5004369;28;20413;-62
2022/09/14 15:48:13;;;;;;;;;;;;;;;;;;5004246;28;19929;-62
2022/09/14 15:50:42;;;;;;;;;;;;;;;;;;5000522;28;20008;-62
2022/09/14 15:53:07;;;;;;;;;;;;;;;;;;5001382;28;20393;-62
2022/09/14 15:55:33;;;;;;;;;;;;;;;;;;5001247;28;20452;-62
2022/09/14 15:57:58;;;;;;;;;;;;;;;;;;4999471;28;20338;-62
2022/09/14 16:00:23;;;;;;;;;;;;;;;;;;5003137;28;19932;-62
2022/09/14 16:02:49;;;;;;;;;;;;;;;;;;5004652;28;19972;-62
2022/09/14 16:05:15;;;;;;;;;;;;;;;;;;5010494;28;19919;-62
2022/09/14 16:07:40;;;;;;;;;;;;;;;;;;5010183;28;19944;-62
2022/09/14 16:10:05;;;;;;;;;;;;;;;;;;5008708;28;20306;-62
2022/09/14 16:12:31;;;;;;;;;;;;;;;;;;5007549;28;20518;-62
2022/09/14 16:14:56;;;;;;;;;;;;;;;;;;5000344;28;19926;-62
2022/09/14 16:17:21;;;;;;;;;;;;;;;;;;5000277;28;19959;-62
2022/09/14 16:19:48;;;;;;;;;;;;;;;;;;5003145;28;19929;-62
2022/09/14 16:22:13;;;;;;;;;;;;;;;;;;4997457;28;19983;-62
2022/09/14 16:24:39;;;;;;;;;;;;;;;;;;5002272;28;19921;-62
2022/09/14 16:27:04;;;;;;;;;;;;;;;;;;5000560;28;19940;-62
2022/09/14 16:29:29;;;;;;;;;;;;;;;;;;5001394;28;19922;-62
2022/09/14 16:31:55;;;;;;;;;;;;;;;;;;5004967;28;19937;-62
2022/09/14 16:34:27;;;;;;;;;;;;;;;;;;5001900;28;20004;-62
2022/09/14 16:36:54;;;;;;;;;;;;;;;;;;4999595;28;20307;-63
2022/09/14 16:39:21;;;;;;;;;;;;;;;;;;5004705;28;19922;-62
2022/09/14 16:41:47;;;;;;;;;;;;;;;;;;5000501;28;19913;-62